Terminal Aerodrome Forecast
Issued by NWS Medford, OR

Home | Current Version | Previous Version | Text Only | Print | Product List | Glossary On
Versions: 1 2 3 4 5 6 7 8 9 10 11 12 13 14 15 16 17 18 19 20 21 22 23 24 25 26 27 28
610
FTUS46 KMFR 131105 AAB
TAFMFR
TAF AMD
KMFR 131105Z 1311/1406 00000KT 4SM BR SKC
     FM131200 00000KT 1/2SM FZFG VV002
     FM131800 00000KT P6SM SKC=

USA.gov is the U.S. government's official web portal to all federal, state and local government web resources and services.